createdAt,value
2023-03-04T00:01:30.261Z,25.00
2023-03-04T00:04:37.945Z,25.30
2023-03-04T00:07:45.886Z,27.80
2023-03-04T00:10:53.512Z,29.70
2023-03-04T00:14:01.219Z,26.50
2023-03-04T00:17:09.311Z,25.00
2023-03-04T00:20:17.075Z,35.20
2023-03-04T00:23:24.955Z,25.50
2023-03-04T00:26:33.060Z,27.70
2023-03-04T00:29:40.592Z,29.00
2023-03-04T00:32:48.998Z,27.90
2023-03-04T00:35:57.209Z,17.90
2023-03-04T00:39:04.695Z,18.10
2023-03-04T00:42:12.668Z,21.30
2023-03-04T00:45:20.886Z,24.50
2023-03-04T00:48:28.151Z,22.60
2023-03-04T00:51:36.285Z,23.60
2023-03-04T00:54:44.012Z,24.70
2023-03-04T00:57:51.692Z,21.80
2023-03-04T01:00:59.615Z,24.80
2023-03-04T01:04:07.305Z,23.60
2023-03-04T01:07:15.142Z,25.20
2023-03-04T01:10:22.965Z,21.90
2023-03-04T01:13:30.742Z,23.40
2023-03-04T01:16:38.603Z,20.90
2023-03-04T01:19:46.378Z,31.80
2023-03-04T01:22:54.203Z,22.50
2023-03-04T01:26:02.240Z,24.40
2023-03-04T01:29:09.534Z,23.70
2023-03-04T01:32:17.728Z,18.70
2023-03-04T01:35:25.709Z,23.30
2023-03-04T01:38:33.054Z,23.00
2023-03-04T01:41:40.791Z,24.60
2023-03-04T01:44:48.733Z,25.00
2023-03-04T01:47:56.263Z,21.60
2023-03-04T01:51:03.841Z,19.90
2023-03-04T01:54:11.455Z,26.10
2023-03-04T01:57:18.764Z,22.20
2023-03-04T02:00:26.476Z,23.20
2023-03-04T02:03:33.777Z,23.10
2023-03-04T02:06:41.819Z,18.50
2023-03-04T02:09:50.106Z,19.20
2023-03-04T02:12:57.434Z,23.60
2023-03-04T02:16:05.379Z,22.90
2023-03-04T02:19:12.922Z,24.50
2023-03-04T02:22:20.535Z,16.70
2023-03-04T02:25:28.421Z,25.00
2023-03-04T02:28:36.508Z,22.80
2023-03-04T02:31:44.272Z,25.20
2023-03-04T02:34:52.121Z,24.90
2023-03-04T02:37:59.692Z,20.20
2023-03-04T02:41:07.868Z,21.70
2023-03-04T02:44:15.344Z,24.20
2023-03-04T02:47:23.256Z,15.10
2023-03-04T02:50:31.474Z,17.60
2023-03-04T02:53:38.859Z,21.20
2023-03-04T02:56:46.921Z,21.00
2023-03-04T02:59:54.622Z,20.10
2023-03-04T03:03:01.999Z,20.50
2023-03-04T03:06:09.971Z,24.70
2023-03-04T03:09:17.745Z,18.50
2023-03-04T03:12:25.372Z,16.90
2023-03-04T03:15:33.691Z,17.60
2023-03-04T03:18:41.413Z,19.50
2023-03-04T03:21:49.115Z,18.00
2023-03-04T03:24:57.111Z,21.60
2023-03-04T03:28:04.505Z,20.70
2023-03-04T03:31:12.632Z,13.40
2023-03-04T03:34:20.419Z,17.20
2023-03-04T03:37:27.807Z,21.90
2023-03-04T03:40:35.936Z,16.50
2023-03-04T03:43:43.717Z,23.00
2023-03-04T03:46:51.538Z,19.00
2023-03-04T03:49:59.609Z,17.80
2023-03-04T03:53:07.338Z,17.70
2023-03-04T03:56:15.321Z,17.20
2023-03-04T03:59:23.043Z,20.40
2023-03-04T04:02:30.831Z,19.30
2023-03-04T04:05:39.022Z,21.90
2023-03-04T04:08:46.795Z,19.30
2023-03-04T04:11:54.415Z,21.50
2023-03-04T04:15:02.386Z,14.60
2023-03-04T04:18:09.781Z,20.60
2023-03-04T04:21:17.934Z,16.00
2023-03-04T04:24:26.190Z,14.50
2023-03-04T04:27:33.546Z,15.30
2023-03-04T04:30:41.781Z,15.60
2023-03-04T04:33:49.786Z,14.40
2023-03-04T04:36:57.165Z,20.40
2023-03-04T04:40:05.146Z,13.90
2023-03-04T04:43:12.696Z,12.50
2023-03-04T04:46:20.601Z,14.70
2023-03-04T04:49:28.267Z,19.20
2023-03-04T04:52:36.054Z,11.90
2023-03-04T04:55:43.781Z,15.60
2023-03-04T04:58:51.740Z,14.70
2023-03-04T05:01:59.411Z,9.00
2023-03-04T05:05:07.178Z,14.30
2023-03-04T05:08:15.386Z,12.70
2023-03-04T05:11:23.076Z,10.40
2023-03-04T05:14:30.739Z,10.60
2023-03-04T05:17:38.433Z,12.00
2023-03-04T05:20:46.604Z,14.70
2023-03-04T05:23:54.419Z,12.60
2023-03-04T05:27:02.231Z,14.80
2023-03-04T05:30:10.451Z,16.70
2023-03-04T05:33:18.100Z,12.00
2023-03-04T05:36:25.825Z,11.60
2023-03-04T05:39:33.896Z,13.80
2023-03-04T05:42:41.642Z,14.00
2023-03-04T05:45:49.447Z,9.70
2023-03-04T05:48:57.359Z,11.20
2023-03-04T05:52:04.702Z,10.00
2023-03-04T05:55:12.601Z,14.00
2023-03-04T05:58:20.171Z,22.20
2023-03-04T06:01:27.633Z,12.10
2023-03-04T06:04:35.607Z,10.40
2023-03-04T06:07:43.146Z,7.20
2023-03-04T06:10:51.091Z,12.20
2023-03-04T06:13:59.135Z,12.00
2023-03-04T06:17:06.477Z,10.40
2023-03-04T06:20:14.393Z,18.30
2023-03-04T06:23:22.090Z,11.80
2023-03-04T06:26:29.386Z,18.20
2023-03-04T06:29:37.325Z,11.00
2023-03-04T06:32:45.268Z,9.90
2023-03-04T06:35:52.623Z,12.80
2023-03-04T06:39:00.261Z,12.60
2023-03-04T06:42:08.044Z,13.10
2023-03-04T06:45:15.448Z,17.90
2023-03-04T06:48:23.349Z,10.20
2023-03-04T06:51:30.917Z,15.00
2023-03-04T06:54:38.699Z,21.40
2023-03-04T06:57:48.608Z,15.00
2023-03-04T07:00:55.979Z,11.70
2023-03-04T07:04:04.113Z,14.00
2023-03-04T07:07:11.829Z,15.80
2023-03-04T07:10:19.513Z,14.50
2023-03-04T07:13:27.899Z,12.70
2023-03-04T07:16:35.772Z,12.70
2023-03-04T07:19:43.224Z,6.90
2023-03-04T07:22:51.169Z,9.10
2023-03-04T07:25:59.715Z,9.30
2023-03-04T07:29:07.752Z,13.80
2023-03-04T07:32:15.727Z,13.50
2023-03-04T07:35:23.138Z,13.80
2023-03-04T07:38:31.406Z,8.00
2023-03-04T07:41:40.004Z,12.20
2023-03-04T07:44:47.393Z,11.20
2023-03-04T07:47:55.464Z,10.10
2023-03-04T07:51:03.608Z,8.00
2023-03-04T07:54:11.287Z,8.90
2023-03-04T07:57:19.128Z,10.80
2023-03-04T08:00:26.534Z,11.80
2023-03-04T08:03:33.938Z,8.30
2023-03-04T08:06:41.871Z,17.30
2023-03-04T08:09:49.519Z,12.90
2023-03-04T08:12:57.358Z,9.80
2023-03-04T08:16:05.177Z,9.60
2023-03-04T08:19:13.211Z,6.60
2023-03-04T08:22:20.949Z,7.20
2023-03-04T08:25:28.626Z,10.10
2023-03-04T08:28:36.621Z,10.50
2023-03-04T08:31:45.838Z,10.60
2023-03-04T08:34:44.374Z,11.60
2023-03-04T08:37:52.341Z,10.80
2023-03-04T08:41:00.092Z,8.90
2023-03-04T08:44:08.582Z,12.80
2023-03-04T08:47:16.034Z,11.00
2023-03-04T08:50:23.262Z,12.00
2023-03-04T08:53:31.136Z,10.00
2023-03-04T08:56:39.166Z,12.70
2023-03-04T08:59:46.455Z,8.80
2023-03-04T09:02:54.642Z,10.10
2023-03-04T09:06:02.594Z,10.10
2023-03-04T09:09:09.799Z,7.90
2023-03-04T09:12:18.101Z,4.60
2023-03-04T09:15:25.676Z,8.70
2023-03-04T09:18:33.247Z,8.40
2023-03-04T09:21:40.761Z,7.00
2023-03-04T09:24:48.440Z,5.50
2023-03-04T09:27:55.713Z,6.50
2023-03-04T09:31:03.825Z,13.30
2023-03-04T09:34:11.042Z,10.20
2023-03-04T09:37:18.613Z,10.30
2023-03-04T09:40:26.161Z,16.00
2023-03-04T09:43:34.033Z,12.20
2023-03-04T09:46:41.510Z,7.20
2023-03-04T09:49:49.106Z,8.50
2023-03-04T09:52:57.145Z,5.50
2023-03-04T09:56:04.806Z,10.80
2023-03-04T09:59:12.626Z,7.40
2023-03-04T10:02:20.832Z,8.90
2023-03-04T10:05:28.001Z,8.30
2023-03-04T10:08:35.946Z,9.30
2023-03-04T10:11:43.795Z,9.90
2023-03-04T10:14:51.012Z,9.40
2023-03-04T10:17:58.910Z,12.10
2023-03-04T10:21:06.795Z,14.40
2023-03-04T10:24:14.117Z,9.10
2023-03-04T10:27:21.957Z,12.20
2023-03-04T10:30:30.151Z,7.80
2023-03-04T10:33:37.462Z,6.90
2023-03-04T10:36:45.193Z,10.30
2023-03-04T10:39:52.752Z,9.70
2023-03-04T10:43:00.371Z,8.20
2023-03-04T10:46:08.040Z,9.50
2023-03-04T10:49:15.739Z,6.60
2023-03-04T10:52:23.339Z,8.50
2023-03-04T10:55:31.073Z,10.80
2023-03-04T10:58:39.026Z,9.60
2023-03-04T11:01:46.696Z,13.50
2023-03-04T11:04:54.231Z,13.10
2023-03-04T11:08:02.282Z,11.90
2023-03-04T11:11:09.982Z,6.00
2023-03-04T11:14:18.877Z,8.10
2023-03-04T11:17:26.722Z,11.20
2023-03-04T11:20:34.075Z,7.10
2023-03-04T11:23:41.803Z,12.20
2023-03-04T11:26:49.383Z,11.40
2023-03-04T11:29:56.775Z,9.60
2023-03-04T11:33:04.824Z,9.30
2023-03-04T11:36:12.327Z,9.40
2023-03-04T11:39:20.042Z,7.40
2023-03-04T11:42:28.288Z,10.20
2023-03-04T11:45:36.078Z,9.00
2023-03-04T11:48:43.446Z,5.30
2023-03-04T11:51:50.974Z,6.40
2023-03-04T11:54:58.932Z,5.10
2023-03-04T11:58:06.446Z,4.90
2023-03-04T12:01:14.520Z,4.20
2023-03-04T12:04:22.829Z,7.50
2023-03-04T12:07:30.346Z,6.60
2023-03-04T12:10:38.408Z,7.10
2023-03-04T12:13:46.400Z,5.20
2023-03-04T12:16:53.829Z,9.10
2023-03-04T12:20:02.094Z,7.10
2023-03-04T12:23:09.491Z,13.10
2023-03-04T12:26:17.063Z,6.20
2023-03-04T12:29:25.023Z,3.50
2023-03-04T12:32:32.746Z,3.50
2023-03-04T12:35:40.237Z,5.50
2023-03-04T12:38:47.894Z,8.80
2023-03-04T12:41:55.865Z,5.70
2023-03-04T12:45:03.503Z,7.20
2023-03-04T12:48:11.779Z,4.20
2023-03-04T12:51:19.527Z,7.90
2023-03-04T12:54:26.932Z,5.70
2023-03-04T12:57:34.713Z,4.80
2023-03-04T13:00:42.100Z,6.40
2023-03-04T13:03:49.524Z,7.00
2023-03-04T13:06:57.817Z,4.10
2023-03-04T13:10:05.709Z,6.70
2023-03-04T13:13:13.237Z,6.70
2023-03-04T13:16:21.070Z,5.30
2023-03-04T13:19:28.882Z,5.30
2023-03-04T13:22:36.469Z,7.10
2023-03-04T13:25:44.570Z,8.70
2023-03-04T13:28:52.283Z,5.20
2023-03-04T13:32:00.070Z,8.30
2023-03-04T13:35:08.031Z,7.70
2023-03-04T13:38:15.615Z,4.70
2023-03-04T13:41:23.579Z,10.80
2023-03-04T13:44:31.168Z,7.00
2023-03-04T13:47:39.177Z,5.40
2023-03-04T13:50:47.024Z,7.10
2023-03-04T13:53:54.711Z,6.60
2023-03-04T13:57:02.582Z,8.00
2023-03-04T14:00:10.015Z,6.30
2023-03-04T14:03:17.744Z,8.50
2023-03-04T14:06:25.828Z,4.60
2023-03-04T14:09:33.129Z,9.50
2023-03-04T14:12:40.858Z,7.70
2023-03-04T14:15:48.180Z,6.00
2023-03-04T14:18:55.830Z,8.90
2023-03-04T14:22:03.624Z,9.50
2023-03-04T14:25:11.781Z,10.50
2023-03-04T14:28:19.708Z,13.30
2023-03-04T14:31:27.503Z,12.50
2023-03-04T14:34:35.415Z,10.30
2023-03-04T14:37:43.175Z,6.30
2023-03-04T14:40:50.976Z,11.70
2023-03-04T14:43:59.148Z,7.30
2023-03-04T14:47:08.383Z,4.60
2023-03-04T14:50:16.158Z,6.30
2023-03-04T14:53:23.831Z,5.10
2023-03-04T14:56:31.154Z,5.90
2023-03-04T14:59:38.895Z,9.50
2023-03-04T15:02:46.944Z,7.80
2023-03-04T15:05:54.325Z,11.90
2023-03-04T15:09:01.918Z,8.50
2023-03-04T15:12:09.987Z,12.80
2023-03-04T15:15:17.877Z,12.10
2023-03-04T15:18:25.746Z,10.90
2023-03-04T15:21:33.303Z,7.20
2023-03-04T15:24:40.895Z,10.20
2023-03-04T15:27:48.790Z,11.70
2023-03-04T15:30:56.274Z,7.50
2023-03-04T15:34:03.886Z,6.50
2023-03-04T15:37:11.796Z,17.80
2023-03-04T15:40:19.790Z,6.80
2023-03-04T15:43:27.053Z,6.60
2023-03-04T15:46:34.736Z,8.20
2023-03-04T15:49:42.705Z,13.70
2023-03-04T15:52:51.252Z,10.70
2023-03-04T15:55:59.053Z,13.10
2023-03-04T15:59:06.991Z,9.70
2023-03-04T16:02:14.959Z,11.10
2023-03-04T16:05:23.258Z,11.20
2023-03-04T16:08:31.276Z,8.10
2023-03-04T16:11:38.717Z,12.10
2023-03-04T16:14:46.504Z,11.80
2023-03-04T16:17:53.902Z,16.10
2023-03-04T16:21:01.491Z,13.20
2023-03-04T16:24:09.624Z,16.10
2023-03-04T16:27:17.002Z,12.70
2023-03-04T16:30:25.151Z,13.00
2023-03-04T16:33:33.095Z,14.20
2023-03-04T16:36:40.405Z,14.70
2023-03-04T16:39:48.565Z,16.60
2023-03-04T16:42:56.664Z,15.80
2023-03-04T16:46:04.521Z,16.40
2023-03-04T16:49:12.154Z,17.50
2023-03-04T16:52:19.847Z,13.30
2023-03-04T16:55:27.825Z,19.90
2023-03-04T16:58:35.535Z,14.90
2023-03-04T17:01:43.208Z,32.10
2023-03-04T17:04:50.985Z,13.00
2023-03-04T17:07:58.996Z,12.00
2023-03-04T17:11:06.728Z,13.50
2023-03-04T17:14:14.330Z,17.40
2023-03-04T17:17:23.120Z,23.60
2023-03-04T17:20:31.291Z,11.50
2023-03-04T17:23:38.948Z,15.20
2023-03-04T17:26:46.301Z,11.10
2023-03-04T17:29:54.298Z,12.70
2023-03-04T17:33:02.724Z,14.40
2023-03-04T17:36:11.901Z,12.40
2023-03-04T17:39:20.586Z,15.30
2023-03-04T17:42:28.986Z,15.50
2023-03-04T17:45:36.486Z,12.60
2023-03-04T17:48:44.566Z,10.30
2023-03-04T17:51:52.277Z,11.30
2023-03-04T17:54:59.905Z,8.50
2023-03-04T17:58:08.026Z,14.00
2023-03-04T18:01:15.825Z,12.70
2023-03-04T18:04:23.587Z,12.30
2023-03-04T18:07:31.816Z,12.20
2023-03-04T18:10:39.176Z,12.10
2023-03-04T18:13:47.041Z,16.60
2023-03-04T18:16:54.850Z,9.70
2023-03-04T18:20:03.185Z,10.60
2023-03-04T18:23:10.999Z,12.20
2023-03-04T18:26:21.049Z,14.70
2023-03-04T18:29:29.561Z,11.70
2023-03-04T18:32:51.063Z,10.90
2023-03-04T18:35:42.371Z,12.00
2023-03-04T18:38:50.662Z,10.70
2023-03-04T18:41:58.946Z,12.20
2023-03-04T18:45:06.610Z,14.10
2023-03-04T18:48:14.653Z,14.10
2023-03-04T18:51:22.033Z,10.80
2023-03-04T18:54:30.374Z,15.80
2023-03-04T18:57:38.235Z,11.90
2023-03-04T19:00:45.658Z,12.90
2023-03-04T19:03:53.810Z,10.70
2023-03-04T19:07:01.846Z,14.70
2023-03-04T19:10:09.407Z,15.00
2023-03-04T19:13:17.298Z,11.70
2023-03-04T19:16:25.079Z,14.10
2023-03-04T19:19:32.662Z,11.80
2023-03-04T19:22:40.973Z,10.60
2023-03-04T19:25:48.900Z,14.00
2023-03-04T19:28:56.564Z,13.40
2023-03-04T19:32:04.621Z,10.90
2023-03-04T19:35:12.417Z,10.40
2023-03-04T19:38:20.449Z,12.90
2023-03-04T19:41:28.669Z,12.70
2023-03-04T19:44:36.509Z,11.50
2023-03-04T19:47:44.788Z,14.10
2023-03-04T19:50:52.806Z,6.20
2023-03-04T19:54:01.210Z,9.30
2023-03-04T19:57:08.910Z,13.20
2023-03-04T20:00:16.771Z,7.80
2023-03-04T20:03:24.987Z,6.40
2023-03-04T20:06:32.619Z,12.00
2023-03-04T20:09:40.506Z,12.50
2023-03-04T20:12:48.349Z,9.20
2023-03-04T20:15:56.721Z,13.10
2023-03-04T20:19:04.529Z,11.80
2023-03-04T20:22:12.743Z,9.70
2023-03-04T20:25:20.768Z,10.20
2023-03-04T20:28:28.917Z,13.50
2023-03-04T20:31:36.773Z,9.00
2023-03-04T20:34:44.598Z,10.90
2023-03-04T20:37:52.632Z,15.70
2023-03-04T20:41:00.491Z,17.20
2023-03-04T20:44:07.830Z,9.90
2023-03-04T20:47:15.911Z,8.40
2023-03-04T20:50:23.590Z,10.60
2023-03-04T20:53:31.328Z,13.60
2023-03-04T20:56:39.423Z,11.40
2023-03-04T20:59:47.323Z,13.30
2023-03-04T21:02:55.391Z,6.50
2023-03-04T21:06:03.445Z,9.80
2023-03-04T21:09:11.235Z,9.40
2023-03-04T21:12:19.098Z,10.60
2023-03-04T21:15:27.273Z,8.20
2023-03-04T21:18:35.073Z,9.40
2023-03-04T21:21:42.876Z,8.50
2023-03-04T21:24:50.568Z,6.70
2023-03-04T21:27:58.423Z,8.00
2023-03-04T21:31:06.500Z,10.40
2023-03-04T21:34:14.362Z,8.00
2023-03-04T21:37:22.323Z,8.80
2023-03-04T21:40:30.095Z,7.50
2023-03-04T21:43:38.159Z,5.30
2023-03-04T21:46:45.995Z,7.40
2023-03-04T21:49:53.808Z,4.30
2023-03-04T21:53:02.038Z,12.30
2023-03-04T21:56:09.822Z,8.40
2023-03-04T21:59:17.651Z,8.30
2023-03-04T22:02:25.685Z,6.60
2023-03-04T22:05:33.367Z,7.10
2023-03-04T22:08:41.356Z,10.50
2023-03-04T22:11:49.633Z,11.50
2023-03-04T22:14:57.222Z,13.50
2023-03-04T22:18:04.768Z,13.80
2023-03-04T22:21:13.153Z,10.90
2023-03-04T22:24:20.438Z,10.20
2023-03-04T22:27:28.024Z,10.20
2023-03-04T22:30:36.096Z,14.20
2023-03-04T22:33:43.573Z,11.30
2023-03-04T22:36:51.870Z,9.60
2023-03-04T22:39:59.547Z,10.40
2023-03-04T22:43:06.912Z,14.10
2023-03-04T22:46:15.203Z,15.80
2023-03-04T22:49:23.191Z,10.70
2023-03-04T22:52:30.533Z,13.50
2023-03-04T22:55:38.520Z,7.50
2023-03-04T22:58:46.232Z,14.00
2023-03-04T23:01:54.077Z,12.50
2023-03-04T23:05:01.927Z,17.70
2023-03-04T23:08:09.694Z,18.50
2023-03-04T23:11:17.357Z,18.30
2023-03-04T23:14:25.570Z,19.00
2023-03-04T23:17:33.436Z,18.00
2023-03-04T23:20:41.308Z,13.40
2023-03-04T23:23:49.223Z,18.60
2023-03-04T23:26:56.909Z,12.70
2023-03-04T23:30:04.528Z,14.10
2023-03-04T23:33:12.191Z,12.50
2023-03-04T23:36:20.392Z,16.70
2023-03-04T23:39:28.172Z,16.80
2023-03-04T23:42:35.936Z,14.70
2023-03-04T23:45:44.185Z,12.70
2023-03-04T23:48:51.595Z,16.40
2023-03-04T23:51:59.676Z,14.20
2023-03-04T23:55:07.442Z,11.10
2023-03-04T23:58:14.859Z,12.60
